Observation data for Plainview on 10/18/2019      Previous  Date       Current Mesonet Observations  Soil Data  Daily Summary Page  Observations in Plain Language
KPVS 180500Z 17012G17KT 16/07 A2985 RMK A01 T01590068  RH  056%=      5-min Rain = 0
KPVS 180505Z 17013KT 16/07 A2985 RMK A01 T01590068  RH  055%=      5-min Rain = 0
KPVS 180510Z 17013G18KT 16/07 A2985 RMK A01 T01580067  RH  055%=      5-min Rain = 0
KPVS 180515Z 17012G17KT 16/07 A2985 RMK A01 T01570067  RH  056%=      5-min Rain = 0
KPVS 180520Z 17013KT 16/07 A2984 RMK A01 T01560066  RH  056%=      5-min Rain = 0
KPVS 180525Z 17012G17KT 16/07 A2984 RMK A01 T01550066  RH  056%=      5-min Rain = 0
KPVS 180530Z 17012G18KT 15/07 A2984 RMK A01 T01530065  RH  056%=      5-min Rain = 0
KPVS 180535Z 17011G16KT 15/06 A2985 RMK A01 T01520064  RH  056%=      5-min Rain = 0
KPVS 180540Z 17012KT 15/06 A2985 RMK A01 T01510063  RH  056%=      5-min Rain = 0
KPVS 180545Z 17012KT 15/06 A2984 RMK A01 T01510063  RH  056%=      5-min Rain = 0
KPVS 180550Z 17011G16KT 15/06 A2984 RMK A01 T01500062  RH  056%=      5-min Rain = 0
KPVS 180555Z 17012KT 15/06 A2984 RMK A01 T01500060  RH  056%=      5-min Rain = 0
KPVS 180600Z 17012KT 15/06 A2984 RMK A01 T01490059  RH  056%=      5-min Rain = 0
KPVS 180605Z 17012KT 15/06 A2984 RMK A01 T01490058  RH  055%=      5-min Rain = 0
KPVS 180610Z 17012G18KT 15/06 A2984 RMK A01 T01480057  RH  055%=      5-min Rain = 0
KPVS 180615Z 17011G16KT 15/06 A2984 RMK A01 T01470057  RH  055%=      5-min Rain = 0
KPVS 180620Z 18012KT 15/06 A2984 RMK A01 T01470055  RH  055%=      5-min Rain = 0
KPVS 180625Z 17012G18KT 15/06 A2984 RMK A01 T01460055  RH  055%=      5-min Rain = 0
KPVS 180630Z 18012KT 15/05 A2984 RMK A01 T01450054  RH  055%=      5-min Rain = 0
KPVS 180635Z 17011G16KT 14/05 A2984 RMK A01 T01440053  RH  055%=      5-min Rain = 0
KPVS 180640Z 17011G17KT 14/05 A2984 RMK A01 T01440054  RH  055%=      5-min Rain = 0
KPVS 180645Z 17011KT 14/05 A2983 RMK A01 T01430054  RH  056%=      5-min Rain = 0
KPVS 180650Z 17012G17KT 14/05 A2983 RMK A01 T01430054  RH  056%=      5-min Rain = 0
KPVS 180655Z 17012KT 14/05 A2983 RMK A01 T01430054  RH  056%=      5-min Rain = 0
KPVS 180700Z 18011KT 14/06 A2983 RMK A01 T01430055  RH  056%=      5-min Rain = 0
KPVS 180705Z 18011G16KT 14/06 A2983 RMK A01 T01430056  RH  057%=      5-min Rain = 0
KPVS 180710Z 18010KT 14/06 A2984 RMK A01 T01420056  RH  057%=      5-min Rain = 0
KPVS 180715Z 18010KT 14/06 A2983 RMK A01 T01410057  RH  058%=      5-min Rain = 0
KPVS 180720Z 17011KT 14/06 A2983 RMK A01 T01410058  RH  058%=      5-min Rain = 0
KPVS 180725Z 18011G16KT 14/06 A2983 RMK A01 T01400058  RH  058%=      5-min Rain = 0
KPVS 180730Z 17010G15KT 14/06 A2983 RMK A01 T01400058  RH  059%=      5-min Rain = 0
KPVS 180735Z 17011KT 14/06 A2983 RMK A01 T01380058  RH  059%=      5-min Rain = 0
KPVS 180740Z 18010G15KT 14/06 A2983 RMK A01 T01380059  RH  060%=      5-min Rain = 0
KPVS 180745Z 18011KT 14/06 A2983 RMK A01 T01370059  RH  060%=      5-min Rain = 0
KPVS 180750Z 18010KT 14/06 A2983 RMK A01 T01360059  RH  060%=      5-min Rain = 0
KPVS 180755Z 17010G15KT 14/06 A2983 RMK A01 T01350060  RH  061%=      5-min Rain = 0
KPVS 180800Z 17010KT 13/06 A2983 RMK A01 T01340060  RH  062%=      5-min Rain = 0
KPVS 180805Z 17010KT 13/06 A2982 RMK A01 T01330061  RH  062%=      5-min Rain = 0
KPVS 180810Z 17010KT 13/06 A2983 RMK A01 T01330061  RH  062%=      5-min Rain = 0
KPVS 180815Z 18010KT 13/06 A2982 RMK A01 T01330061  RH  063%=      5-min Rain = 0
KPVS 180820Z 18010KT 13/06 A2982 RMK A01 T01330063  RH  063%=      5-min Rain = 0
KPVS 180825Z 18009KT 13/06 A2982 RMK A01 T01340064  RH  064%=      5-min Rain = 0
KPVS 180830Z 18009G14KT 13/07 A2982 RMK A01 T01340066  RH  064%=      5-min Rain = 0
KPVS 180835Z 18009KT 14/07 A2982 RMK A01 T01350067  RH  064%=      5-min Rain = 0
KPVS 180840Z 19008KT 13/07 A2982 RMK A01 T01340068  RH  065%=      5-min Rain = 0
KPVS 180845Z 19009G14KT 13/07 A2982 RMK A01 T01330068  RH  066%=      5-min Rain = 0
KPVS 180850Z 18008KT 13/07 A2982 RMK A01 T01330068  RH  066%=      5-min Rain = 0
KPVS 180855Z 18008KT 13/07 A2982 RMK A01 T01310068  RH  067%=      5-min Rain = 0
KPVS 180900Z 18008KT 13/07 A2982 RMK A01 T01300068  RH  067%=      5-min Rain = 0
KPVS 180905Z 18008KT 13/07 A2981 RMK A01 T01280069  RH  068%=      5-min Rain = 0
KPVS 180910Z 18007KT 13/07 A2981 RMK A01 T01270069  RH  069%=      5-min Rain = 0
KPVS 180915Z 18007KT 13/07 A2981 RMK A01 T01260069  RH  069%=      5-min Rain = 0
KPVS 180920Z 19006KT 13/07 A2981 RMK A01 T01250070  RH  070%=      5-min Rain = 0
KPVS 180925Z 19006KT 12/07 A2981 RMK A01 T01240070  RH  070%=      5-min Rain = 0
KPVS 180930Z 18007KT 12/07 A2981 RMK A01 T01240070  RH  071%=      5-min Rain = 0
KPVS 180935Z 19007KT 12/07 A2981 RMK A01 T01230071  RH  072%=      5-min Rain = 0
KPVS 180940Z 18007KT 12/07 A298 RMK A01 T01220071  RH  072%=      5-min Rain = 0
KPVS 180945Z 19006KT 12/07 A298 RMK A01 T01210071  RH  073%=      5-min Rain = 0
KPVS 180950Z 19007KT 12/07 A298 RMK A01 T01190071  RH  074%=      5-min Rain = 0
KPVS 180955Z 19007KT 12/07 A298 RMK A01 T01180071  RH  074%=      5-min Rain = 0
KPVS 181000Z 19007KT 12/07 A298 RMK A01 T01180069  RH  073%=      5-min Rain = 0
KPVS 181005Z 19008KT 12/07 A298 RMK A01 T01180068  RH  073%=      5-min Rain = 0
KPVS 181010Z 19008KT 12/07 A298 RMK A01 T01160068  RH  073%=      5-min Rain = 0
KPVS 181015Z 19008KT 12/07 A298 RMK A01 T01160067  RH  073%=      5-min Rain = 0
KPVS 181020Z 18008KT 11/07 A298 RMK A01 T01140067  RH  074%=      5-min Rain = 0
KPVS 181025Z 18007KT 11/07 A298 RMK A01 T01130068  RH  075%=      5-min Rain = 0
KPVS 181030Z 19006KT 11/07 A298 RMK A01 T01130067  RH  075%=      5-min Rain = 0
KPVS 181035Z 19008KT 11/07 A298 RMK A01 T01120067  RH  075%=      5-min Rain = 0
KPVS 181040Z 19008KT 11/07 A298 RMK A01 T01110067  RH  075%=      5-min Rain = 0
KPVS 181045Z 19007KT 11/07 A298 RMK A01 T01100067  RH  076%=      5-min Rain = 0
KPVS 181050Z 19006KT 11/07 A298 RMK A01 T01090068  RH  077%=      5-min Rain = 0
KPVS 181055Z 18007KT 11/07 A298 RMK A01 T01080069  RH  078%=      5-min Rain = 0
KPVS 181100Z 18007KT 11/07 A298 RMK A01 T01080069  RH  078%=      5-min Rain = 0
KPVS 181105Z 18006KT 11/07 A298 RMK A01 T01080070  RH  079%=      5-min Rain = 0
KPVS 181110Z 19006KT 11/07 A298 RMK A01 T01070072  RH  080%=      5-min Rain = 0
KPVS 181115Z 19006KT 11/07 A298 RMK A01 T01070072  RH  080%=      5-min Rain = 0
KPVS 181120Z 19005KT 11/07 A298 RMK A01 T01060072  RH  080%=      5-min Rain = 0
KPVS 181125Z 20005KT 11/07 A298 RMK A01 T01060073  RH  081%=      5-min Rain = 0
KPVS 181130Z 20005KT 11/08 A298 RMK A01 T01060075  RH  082%=      5-min Rain = 0
KPVS 181135Z 21005KT 11/07 A298 RMK A01 T01050074  RH  082%=      5-min Rain = 0
KPVS 181140Z 21005KT 10/07 A298 RMK A01 T01040074  RH  083%=      5-min Rain = 0
KPVS 181145Z 21005KT 10/07 A298 RMK A01 T01030074  RH  084%=      5-min Rain = 0
KPVS 181150Z 21004KT 10/08 A298 RMK A01 T01030076  RH  085%=      5-min Rain = 0
KPVS 181155Z 20004KT 10/08 A298 RMK A01 T01030077  RH  085%=      5-min Rain = 0
KPVS 181200Z 18003KT 10/08 A298 RMK A01 T01020077  RH  086%=      5-min Rain = 0
KPVS 181205Z 18004KT 10/08 A298 RMK A01 T01010078  RH  087%=      5-min Rain = 0
KPVS 181210Z 18005KT 10/08 A298 RMK A01 T01010079  RH  087%=      5-min Rain = 0
KPVS 181215Z 18004KT 10/08 A298 RMK A01 T01020080  RH  088%=      5-min Rain = 0
KPVS 181220Z 18004KT 10/08 A298 RMK A01 T01020081  RH  088%=      5-min Rain = 0
KPVS 181225Z 18003KT 10/08 A298 RMK A01 T01010081  RH  088%=      5-min Rain = 0
KPVS 181230Z 16003KT 10/08 A298 RMK A01 T01010081  RH  089%=      5-min Rain = 0
KPVS 181235Z 17003KT 10/08 A298 RMK A01 T01020083  RH  089%=      5-min Rain = 0
KPVS 181240Z 16003KT 10/08 A298 RMK A01 T01030084  RH  089%=      5-min Rain = 0
KPVS 181245Z 16003KT 10/08 A298 RMK A01 T01010081  RH  089%=      5-min Rain = 0
KPVS 181250Z 16003KT 10/08 A298 RMK A01 T01000080  RH  089%=      5-min Rain = 0
KPVS 181255Z 16003KT 10/08 A298 RMK A01 T00990080  RH  089%=      5-min Rain = 0
KPVS 181300Z 16002KT 10/08 A298 RMK A01 T00990081  RH  090%=      5-min Rain = 0
KPVS 181305Z 17003KT 10/08 A298 RMK A01 T00990082  RH  090%=      5-min Rain = 0
KPVS 181310Z 18003KT 10/08 A2979 RMK A01 T01000084  RH  091%=      5-min Rain = 0
KPVS 181315Z 18003KT 10/09 A2979 RMK A01 T01030087  RH  092%=      5-min Rain = 0
KPVS 181320Z 19002KT 11/09 A2979 RMK A01 T01060090  RH  092%=      5-min Rain = 0
KPVS 181325Z 19003KT 11/09 A298 RMK A01 T01080093  RH  092%=      5-min Rain = 0
KPVS 181330Z 19003KT 11/10 A298 RMK A01 T01110095  RH  091%=      5-min Rain = 0
KPVS 181335Z 19005KT 11/10 A2979 RMK A01 T01140097  RH  091%=      5-min Rain = 0
KPVS 181340Z 20005KT 12/10 A298 RMK A01 T01170098  RH  090%=      5-min Rain = 0
KPVS 181345Z 20005KT 12/10 A298 RMK A01 T01200100  RH  089%=      5-min Rain = 0
KPVS 181350Z 20006KT 12/10 A298 RMK A01 T01230102  RH  088%=      5-min Rain = 0
KPVS 181355Z 20006KT 13/10 A298 RMK A01 T01270104  RH  087%=      5-min Rain = 0
KPVS 181400Z 20006KT 13/11 A298 RMK A01 T01310105  RH  086%=      5-min Rain = 0
KPVS 181405Z 19008KT 14/11 A298 RMK A01 T01350106  RH  084%=      5-min Rain = 0
KPVS 181410Z 19009KT 14/11 A2979 RMK A01 T01380107  RH  083%=      5-min Rain = 0
KPVS 181415Z 19008KT 14/11 A298 RMK A01 T01410108  RH  082%=      5-min Rain = 0
KPVS 181420Z 20010KT 14/11 A298 RMK A01 T01430108  RH  081%=      5-min Rain = 0
KPVS 181425Z 20009G14KT 15/11 A298 RMK A01 T01460108  RH  080%=      5-min Rain = 0
KPVS 181430Z 19008KT 15/11 A298 RMK A01 T01490110  RH  079%=      5-min Rain = 0
KPVS 181435Z 19010G15KT 15/11 A298 RMK A01 T01530110  RH  077%=      5-min Rain = 0
KPVS 181440Z 20010G15KT 16/11 A2979 RMK A01 T01570110  RH  075%=      5-min Rain = 0
KPVS 181445Z 20010G15KT 16/11 A298 RMK A01 T01600110  RH  074%=      5-min Rain = 0
KPVS 181450Z 20013G18KT 16/11 A2979 RMK A01 T01620109  RH  072%=      5-min Rain = 0
KPVS 181455Z 20013KT 16/11 A2979 RMK A01 T01630109  RH  072%=      5-min Rain = 0
KPVS 181500Z 20013KT 17/11 A2979 RMK A01 T01650109  RH  071%=      5-min Rain = 0
KPVS 181505Z 20012KT 17/11 A2979 RMK A01 T01680109  RH  070%=      5-min Rain = 0
KPVS 181510Z 20011KT 17/11 A2979 RMK A01 T01700110  RH  069%=      5-min Rain = 0
KPVS 181515Z 21012G17KT 17/11 A2979 RMK A01 T01720110  RH  068%=      5-min Rain = 0
KPVS 181520Z 21012G17KT 18/11 A2979 RMK A01 T01750110  RH  067%=      5-min Rain = 0
KPVS 181525Z 21012G17KT 18/11 A2979 RMK A01 T01760110  RH  066%=      5-min Rain = 0
KPVS 181530Z 20010G15KT 18/11 A2978 RMK A01 T01820112  RH  065%=      5-min Rain = 0
KPVS 181535Z 20012KT 18/11 A2978 RMK A01 T01840112  RH  064%=      5-min Rain = 0
KPVS 181540Z 21012G18KT 19/11 A2978 RMK A01 T01860112  RH  063%=      5-min Rain = 0
KPVS 181545Z 21011G16KT 18/11 A2978 RMK A01 T01840111  RH  063%=      5-min Rain = 0
KPVS 181550Z 21010KT 18/11 A2978 RMK A01 T01830111  RH  064%=      5-min Rain = 0
KPVS 181555Z 21012KT 18/11 A2978 RMK A01 T01840111  RH  063%=      5-min Rain = 0
KPVS 181600Z 21011KT 19/11 A2978 RMK A01 T01850111  RH  063%=      5-min Rain = 0
KPVS 181605Z 21013G18KT 19/11 A2978 RMK A01 T01880110  RH  062%=      5-min Rain = 0
KPVS 181610Z 21013G18KT 19/11 A2978 RMK A01 T01870110  RH  062%=      5-min Rain = 0
KPVS 181615Z 21013KT 19/11 A2977 RMK A01 T01920112  RH  061%=      5-min Rain = 0
KPVS 181620Z 20011G17KT 20/11 A2977 RMK A01 T01990114  RH  059%=      5-min Rain = 0
KPVS 181625Z 21012KT 20/11 A2977 RMK A01 T01970112  RH  059%=      5-min Rain = 0
KPVS 181630Z 21011G16KT 20/11 A2977 RMK A01 T02000113  RH  058%=      5-min Rain = 0
KPVS 181635Z 21010G15KT 20/11 A2977 RMK A01 T02000113  RH  058%=      5-min Rain = 0
KPVS 181640Z 21011KT 20/11 A2977 RMK A01 T01990113  RH  059%=      5-min Rain = 0
KPVS 181645Z 21011G16KT 20/12 A2977 RMK A01 T02040115  RH  057%=      5-min Rain = 0
KPVS 181650Z 21011KT 21/12 A2976 RMK A01 T02080115  RH  056%=      5-min Rain = 0
KPVS 181655Z 21011G17KT 21/12 A2976 RMK A01 T02060116  RH  057%=      5-min Rain = 0
KPVS 181700Z 20013KT 21/12 A2976 RMK A01 T02110116  RH  055%=      5-min Rain = 0
KPVS 181705Z 22012G17KT 21/12 A2976 RMK A01 T02110116  RH  056%=      5-min Rain = 0
KPVS 181710Z 21014G20KT 21/12 A2976 RMK A01 T02130117  RH  055%=      5-min Rain = 0
KPVS 181715Z 22012G18KT 21/12 A2975 RMK A01 T02110117  RH  056%=      5-min Rain = 0
KPVS 181720Z 21012G18KT 21/12 A2975 RMK A01 T02140117  RH  055%=      5-min Rain = 0
KPVS 181725Z 20012KT 22/12 A2975 RMK A01 T02150118  RH  055%=      5-min Rain = 0
KPVS 181730Z 21012G17KT 22/12 A2975 RMK A01 T02220120  RH  053%=      5-min Rain = 0
KPVS 181735Z 21013G22KT 23/12 A2974 RMK A01 T02250120  RH  053%=      5-min Rain = 0
KPVS 181740Z 22012G17KT 23/12 A2974 RMK A01 T02270121  RH  052%=      5-min Rain = 0
KPVS 181745Z 21012G19KT 23/12 A2974 RMK A01 T02320121  RH  051%=      5-min Rain = 0
KPVS 181750Z 22011KT 24/12 A2973 RMK A01 T02360121  RH  049%=      5-min Rain = 0
KPVS 181755Z 21013G20KT 24/12 A2973 RMK A01 T02360120  RH  049%=      5-min Rain = 0
KPVS 181800Z 22011G18KT 24/12 A2973 RMK A01 T02360121  RH  049%=      5-min Rain = 0
KPVS 181805Z 21012G18KT 24/12 A2972 RMK A01 T02410121  RH  048%=      5-min Rain = 0
KPVS 181810Z 21013G20KT 24/12 A2972 RMK A01 T02420121  RH  048%=      5-min Rain = 0
KPVS 181815Z 21012G19KT 24/12 A2972 RMK A01 T02440121  RH  047%=      5-min Rain = 0
KPVS 181820Z 21012KT 25/12 A2972 RMK A01 T02480122  RH  046%=      5-min Rain = 0
KPVS 181825Z 21013G19KT 25/12 A2971 RMK A01 T02510121  RH  045%=      5-min Rain = 0
KPVS 181830Z 21014G19KT 25/12 A2971 RMK A01 T02500121  RH  045%=      5-min Rain = 0
KPVS 181835Z 20011G19KT 25/12 A2971 RMK A01 T02540123  RH  045%=      5-min Rain = 0
KPVS 181840Z 21014G20KT 26/12 A2971 RMK A01 T02560121  RH  044%=      5-min Rain = 0
KPVS 181845Z 22010G17KT 26/12 A297 RMK A01 T02570122  RH  044%=      5-min Rain = 0
KPVS 181850Z 21013G22KT 26/12 A297 RMK A01 T02610122  RH  043%=      5-min Rain = 0
KPVS 181855Z 22011G17KT 26/12 A2969 RMK A01 T02640123  RH  042%=      5-min Rain = 0
KPVS 181900Z 21013G21KT 27/12 A2969 RMK A01 T02660122  RH  042%=      5-min Rain = 0
KPVS 181905Z 21011G16KT 27/12 A2969 RMK A01 T02700124  RH  041%=      5-min Rain = 0
KPVS 181910Z 20011KT 27/12 A2968 RMK A01 T02730123  RH  040%=      5-min Rain = 0
KPVS 181915Z 21010G17KT 28/12 A2968 RMK A01 T02760123  RH  040%=      5-min Rain = 0
KPVS 181920Z 20011G16KT 28/12 A2967 RMK A01 T02760122  RH  039%=      5-min Rain = 0
KPVS 181925Z 20009G19KT 28/12 A2967 RMK A01 T02760123  RH  039%=      5-min Rain = 0
KPVS 181930Z 21009G19KT 28/12 A2966 RMK A01 T02800122  RH  038%=      5-min Rain = 0
KPVS 181935Z 20011G18KT 29/12 A2966 RMK A01 T02850120  RH  037%=      5-min Rain = 0
KPVS 181940Z 22013G19KT 29/12 A2965 RMK A01 T02870116  RH  035%=      5-min Rain = 0
KPVS 181945Z 22013G19KT 28/11 A2965 RMK A01 T02840113  RH  035%=      5-min Rain = 0
KPVS 181950Z 21014G22KT 28/11 A2965 RMK A01 T02800110  RH  035%=      5-min Rain = 0
KPVS 181955Z 21013G20KT 26/14 A2965 RMK A01 T02620137  RH  047%=      5-min Rain = 0
KPVS 182000Z 23008G16KT 26/15 A2965 RMK A01 T02560146  RH  052%=      5-min Rain = 0
KPVS 182005Z 23008G13KT 26/14 A2964 RMK A01 T02550142  RH  051%=      5-min Rain = 0
KPVS 182010Z 25006G12KT 26/14 A2964 RMK A01 T02570144  RH  051%=      5-min Rain = 0
KPVS 182015Z 23006G11KT 26/14 A2964 RMK A01 T02640137  RH  047%=      5-min Rain = 0
KPVS 182020Z 23011G18KT 28/12 A2963 RMK A01 T02790118  RH  038%=      5-min Rain = 0
KPVS 182025Z 22011G17KT 29/10 A2963 RMK A01 T02870100  RH  032%=      5-min Rain = 0
KPVS 182030Z 22016G25KT 29/10 A2963 RMK A01 T02920097  RH  030%=      5-min Rain = 0
KPVS 182035Z 22016G25KT 29/09 A2963 RMK A01 T02890090  RH  029%=      5-min Rain = 0
KPVS 182040Z 21016G21KT 28/09 A2963 RMK A01 T02820090  RH  030%=      5-min Rain = 0
KPVS 182045Z 21013KT 28/09 A2963 RMK A01 T02800090  RH  031%=      5-min Rain = 0
KPVS 182050Z 23014G23KT 29/09 A2963 RMK A01 T02910089  RH  029%=      5-min Rain = 0
KPVS 182055Z 24013G18KT 29/09 A2963 RMK A01 T02930087  RH  028%=      5-min Rain = 0
KPVS 182100Z 22015G21KT 29/08 A2963 RMK A01 T02940080  RH  027%=      5-min Rain = 0
KPVS 182105Z 22016G23KT 29/07 A2963 RMK A01 T02940072  RH  025%=      5-min Rain = 0
KPVS 182110Z 22015G22KT 29/07 A2963 RMK A01 T02880070  RH  026%=      5-min Rain = 0
KPVS 182115Z 23013G18KT 29/07 A2962 RMK A01 T02910071  RH  025%=      5-min Rain = 0
KPVS 182120Z 20014G19KT 29/07 A2962 RMK A01 T02940066  RH  024%=      5-min Rain = 0
KPVS 182125Z 22012G18KT 29/06 A2962 RMK A01 T02930062  RH  024%=      5-min Rain = 0
KPVS 182130Z 23013G19KT 29/07 A2962 RMK A01 T02930069  RH  025%=      5-min Rain = 0
KPVS 182135Z 22012G17KT 30/07 A2962 RMK A01 T02950065  RH  024%=      5-min Rain = 0
KPVS 182140Z 23015G21KT 29/06 A2962 RMK A01 T02920059  RH  023%=      5-min Rain = 0
KPVS 182145Z 23014G21KT 29/06 A2962 RMK A01 T02910059  RH  023%=      5-min Rain = 0
KPVS 182150Z 22014G21KT 29/06 A2962 RMK A01 T02880063  RH  025%=      5-min Rain = 0
KPVS 182155Z 22012G18KT 28/06 A2963 RMK A01 T02800062  RH  025%=      5-min Rain = 0
KPVS 182200Z 23011G16KT 28/07 A2963 RMK A01 T02770066  RH  027%=      5-min Rain = 0
KPVS 182205Z 23010G15KT 28/07 A2963 RMK A01 T02800067  RH  026%=      5-min Rain = 0
KPVS 182210Z 24009G15KT 28/07 A2963 RMK A01 T02790071  RH  027%=      5-min Rain = 0
KPVS 182215Z 24008G14KT 28/08 A2963 RMK A01 T02810079  RH  028%=      5-min Rain = 0
KPVS 182220Z 24009KT 28/08 A2963 RMK A01 T02790082  RH  029%=      5-min Rain = 0
KPVS 182225Z 25009G15KT 28/08 A2963 RMK A01 T02750083  RH  030%=      5-min Rain = 0
KPVS 182230Z 25009G17KT 28/09 A2963 RMK A01 T02750086  RH  031%=      5-min Rain = 0
KPVS 182235Z 24007G13KT 28/09 A2963 RMK A01 T02800090  RH  031%=      5-min Rain = 0
KPVS 182240Z 25010G17KT 28/09 A2963 RMK A01 T02760089  RH  031%=      5-min Rain = 0
KPVS 182245Z 25008KT 27/09 A2963 RMK A01 T02720088  RH  032%=      5-min Rain = 0
KPVS 182250Z 25008KT 27/09 A2963 RMK A01 T02690088  RH  032%=      5-min Rain = 0
KPVS 182255Z 25007G13KT 27/09 A2963 RMK A01 T02680089  RH  033%=      5-min Rain = 0
KPVS 182300Z 25009G14KT 27/09 A2963 RMK A01 T02690090  RH  033%=      5-min Rain = 0
KPVS 182305Z 25009KT 27/09 A2963 RMK A01 T02730090  RH  032%=      5-min Rain = 0
KPVS 182310Z 23011G16KT 28/09 A2963 RMK A01 T02770087  RH  031%=      5-min Rain = 0
KPVS 182315Z 25010G17KT 28/08 A2963 RMK A01 T02800078  RH  028%=      5-min Rain = 0
KPVS 182320Z 25011G17KT 28/07 A2964 RMK A01 T02780071  RH  027%=      5-min Rain = 0
KPVS 182325Z 25010G15KT 28/07 A2964 RMK A01 T02760069  RH  027%=      5-min Rain = 0
KPVS 182330Z 25010G16KT 27/07 A2964 RMK A01 T02730067  RH  027%=      5-min Rain = 0
KPVS 182335Z 25008G14KT 27/07 A2964 RMK A01 T02710065  RH  027%=      5-min Rain = 0
KPVS 182340Z 25008G13KT 27/06 A2964 RMK A01 T02690060  RH  027%=      5-min Rain = 0
KPVS 182345Z 25008KT 27/06 A2964 RMK A01 T02670059  RH  027%=      5-min Rain = 0
KPVS 182350Z 25006KT 26/06 A2964 RMK A01 T02620060  RH  028%=      5-min Rain = 0
KPVS 182355Z 25007KT 26/06 A2964 RMK A01 T02580061  RH  029%=      5-min Rain = 0
KPVS 190000Z 25006KT 25/06 A2964 RMK A01 T02540061  RH  029%=      5-min Rain = 0
KPVS 190005Z 25005KT 25/06 A2964 RMK A01 T02500061  RH  030%=      5-min Rain = 0
KPVS 190010Z 25004KT 25/06 A2964 RMK A01 T02470061  RH  031%=      5-min Rain = 0
KPVS 190015Z 25004KT 24/06 A2964 RMK A01 T02430060  RH  031%=      5-min Rain = 0
KPVS 190020Z 25004KT 24/06 A2965 RMK A01 T02390062  RH  032%=      5-min Rain = 0
KPVS 190025Z 26005KT 23/06 A2965 RMK A01 T02340064  RH  034%=      5-min Rain = 0
KPVS 190030Z 27007KT 23/07 A2965 RMK A01 T02270066  RH  036%=      5-min Rain = 0
KPVS 190035Z 27006KT 23/07 A2965 RMK A01 T02280068  RH  036%=      5-min Rain = 0
KPVS 190040Z 28006KT 23/07 A2965 RMK A01 T02290071  RH  037%=      5-min Rain = 0
KPVS 190045Z 27005KT 23/07 A2966 RMK A01 T02280073  RH  037%=      5-min Rain = 0
KPVS 190050Z 29005KT 22/07 A2966 RMK A01 T02240074  RH  039%=      5-min Rain = 0
KPVS 190055Z 29007KT 22/08 A2967 RMK A01 T02160076  RH  041%=      5-min Rain = 0
KPVS 190100Z 29017G27KT 22/08 A2968 RMK A01 T02200075  RH  040%=      5-min Rain = 0
KPVS 190105Z 29024G33KT 22/07 A2969 RMK A01 T02240073  RH  038%=      5-min Rain = 0
KPVS 190110Z 28021G32KT 21/09 A2969 RMK A01 T02140093  RH  047%=      5-min Rain = 0
KPVS 190115Z 29018G25KT 19/11 A2969 RMK A01 T01910111  RH  061%=      5-min Rain = 0
KPVS 190120Z 29017G23KT 19/11 A2969 RMK A01 T01860111  RH  063%=      5-min Rain = 0.01
KPVS 190125Z 29016G21KT 19/11 A297 RMK A01 T01850111  RH  063%=      5-min Rain = 0
KPVS 190130Z 29013G18KT 19/11 A297 RMK A01 T01850110  RH  062%=      5-min Rain = 0
KPVS 190135Z 30012G18KT 19/11 A297 RMK A01 T01850108  RH  062%=      5-min Rain = 0
KPVS 190140Z 30013G18KT 19/11 A297 RMK A01 T01860106  RH  061%=      5-min Rain = 0
KPVS 190145Z 31011G16KT 19/10 A297 RMK A01 T01870104  RH  060%=      5-min Rain = 0
KPVS 190150Z 31009G14KT 19/10 A297 RMK A01 T01860103  RH  060%=      5-min Rain = 0
KPVS 190155Z 31009KT 19/10 A297 RMK A01 T01860104  RH  060%=      5-min Rain = 0
KPVS 190200Z 31009KT 18/10 A297 RMK A01 T01840104  RH  061%=      5-min Rain = 0
KPVS 190205Z 31008KT 18/11 A297 RMK A01 T01830105  RH  061%=      5-min Rain = 0
KPVS 190210Z 31008KT 18/11 A297 RMK A01 T01820105  RH  062%=      5-min Rain = 0
KPVS 190215Z 31007KT 18/10 A297 RMK A01 T01810104  RH  062%=      5-min Rain = 0
KPVS 190220Z 31008KT 18/10 A297 RMK A01 T01790103  RH  062%=      5-min Rain = 0
KPVS 190225Z 29007KT 18/10 A297 RMK A01 T01790102  RH  062%=      5-min Rain = 0
KPVS 190230Z 28006KT 18/10 A297 RMK A01 T01760103  RH  063%=      5-min Rain = 0
KPVS 190235Z 27006KT 17/10 A297 RMK A01 T01740104  RH  065%=      5-min Rain = 0
KPVS 190240Z 26006KT 17/11 A2971 RMK A01 T01700105  RH  067%=      5-min Rain = 0
KPVS 190245Z 25005KT 17/11 A2971 RMK A01 T01650105  RH  069%=      5-min Rain = 0
KPVS 190250Z 26005KT 16/11 A2971 RMK A01 T01600105  RH  071%=      5-min Rain = 0
KPVS 190255Z 26006KT 16/11 A2971 RMK A01 T01580105  RH  072%=      5-min Rain = 0
KPVS 190300Z 26005KT 16/10 A2972 RMK A01 T01570104  RH  072%=      5-min Rain = 0
KPVS 190305Z 27005KT 16/10 A2972 RMK A01 T01550103  RH  073%=      5-min Rain = 0
KPVS 190310Z 28004KT 15/10 A2972 RMK A01 T01500101  RH  074%=      5-min Rain = 0
KPVS 190315Z 27003KT 15/10 A2971 RMK A01 T01470102  RH  075%=      5-min Rain = 0
KPVS 190320Z 26003KT 15/10 A2972 RMK A01 T01490101  RH  075%=      5-min Rain = 0
KPVS 190325Z 24004KT 15/10 A2972 RMK A01 T01490101  RH  074%=      5-min Rain = 0
KPVS 190330Z 21005KT 15/10 A2972 RMK A01 T01470099  RH  074%=      5-min Rain = 0
KPVS 190335Z 19007KT 14/10 A2973 RMK A01 T01380098  RH  078%=      5-min Rain = 0
KPVS 190340Z 21006KT 14/10 A2973 RMK A01 T01370100  RH  080%=      5-min Rain = 0
KPVS 190345Z 23006KT 14/10 A2973 RMK A01 T01410099  RH  077%=      5-min Rain = 0
KPVS 190350Z 24005KT 14/10 A2973 RMK A01 T01400097  RH  077%=      5-min Rain = 0
KPVS 190355Z 24005KT 14/10 A2973 RMK A01 T01370096  RH  078%=      5-min Rain = 0
KPVS 190400Z 24005KT 14/10 A2974 RMK A01 T01360096  RH  078%=      5-min Rain = 0
KPVS 190405Z 25006KT 14/10 A2974 RMK A01 T01360096  RH  078%=      5-min Rain = 0
KPVS 190410Z 25004KT 14/09 A2974 RMK A01 T01360094  RH  077%=      5-min Rain = 0
KPVS 190415Z 25004KT 14/09 A2974 RMK A01 T01360093  RH  076%=      5-min Rain = 0
KPVS 190420Z 25004KT 14/09 A2974 RMK A01 T01370092  RH  075%=      5-min Rain = 0
KPVS 190425Z 24004KT 14/09 A2974 RMK A01 T01370090  RH  075%=      5-min Rain = 0
KPVS 190430Z 23005KT 14/09 A2974 RMK A01 T01360089  RH  075%=      5-min Rain = 0
KPVS 190435Z 23004KT 13/09 A2974 RMK A01 T01330088  RH  075%=      5-min Rain = 0
KPVS 190440Z 24004KT 13/09 A2975 RMK A01 T01300086  RH  076%=      5-min Rain = 0
KPVS 190445Z 24006KT 13/08 A2975 RMK A01 T01290084  RH  075%=      5-min Rain = 0
KPVS 190450Z 26006KT 13/08 A2975 RMK A01 T01310083  RH  074%=      5-min Rain = 0
KPVS 190455Z 26006KT 13/08 A2974 RMK A01 T01330083  RH  073%=      5-min Rain = 0

Page generated in 0.0417 seconds.